createdAt,value
2023-03-12T00:02:10.199Z,-0.5
2023-03-12T00:05:10.156Z,-0.4
2023-03-12T00:08:10.187Z,-0.4
2023-03-12T00:11:10.176Z,-0.4
2023-03-12T00:14:10.182Z,-0.3
2023-03-12T00:17:10.185Z,-0.3
2023-03-12T00:20:10.189Z,-0.3
2023-03-12T00:23:10.212Z,-0.2
2023-03-12T00:26:10.227Z,-0.3
2023-03-12T00:29:10.213Z,-0.3
2023-03-12T00:32:10.212Z,-0.3
2023-03-12T00:35:10.230Z,-0.3
2023-03-12T00:38:10.236Z,-0.4
2023-03-12T00:41:10.240Z,-0.4
2023-03-12T00:44:10.275Z,-0.4
2023-03-12T00:47:10.255Z,-0.4
2023-03-12T00:50:10.256Z,-0.4
2023-03-12T00:53:10.262Z,-0.4
2023-03-12T00:56:10.283Z,-0.5
2023-03-12T00:59:10.276Z,-0.5
2023-03-12T01:02:10.314Z,-0.5
2023-03-12T01:05:10.295Z,-0.6
2023-03-12T01:08:10.309Z,-0.6
2023-03-12T01:11:10.314Z,-0.6
2023-03-12T01:14:10.327Z,-0.6
2023-03-12T01:17:10.333Z,-0.6
2023-03-12T01:20:10.370Z,-0.5
2023-03-12T01:23:10.354Z,-0.5
2023-03-12T01:26:10.362Z,-0.5
2023-03-12T01:29:10.373Z,-0.5
2023-03-12T01:32:10.375Z,-0.5
2023-03-12T01:35:10.402Z,-0.5
2023-03-12T01:38:10.422Z,-0.6
2023-03-12T01:41:10.400Z,-0.6
2023-03-12T01:44:10.404Z,-0.6
2023-03-12T01:47:10.414Z,-0.7
2023-03-12T01:50:10.430Z,-0.7
2023-03-12T01:53:10.435Z,-0.7
2023-03-12T01:56:10.473Z,-0.7
2023-03-12T01:59:10.447Z,-0.7
2023-03-12T02:02:10.457Z,-0.8
2023-03-12T02:05:10.462Z,-0.8
2023-03-12T02:08:10.470Z,-0.8
2023-03-12T02:11:10.487Z,-0.8
2023-03-12T02:14:10.514Z,-0.8
2023-03-12T02:17:10.504Z,-0.8
2023-03-12T02:20:10.515Z,-0.8
2023-03-12T02:23:10.521Z,-0.8
2023-03-12T02:26:10.532Z,-0.9
2023-03-12T02:29:10.539Z,-0.9
2023-03-12T02:32:10.587Z,-1
2023-03-12T02:35:10.560Z,-1
2023-03-12T02:38:10.567Z,-1.1
2023-03-12T02:41:10.574Z,-1.2
2023-03-12T02:44:10.588Z,-1.2
2023-03-12T02:47:10.598Z,-1.3
2023-03-12T02:50:10.646Z,-1.4
2023-03-12T02:53:10.619Z,-1.5
2023-03-12T02:56:10.633Z,-1.5
2023-03-12T02:59:10.651Z,-1.6
2023-03-12T03:02:10.654Z,-1.7
2023-03-12T03:05:10.683Z,-1.8
2023-03-12T03:08:10.706Z,-1.8
2023-03-12T03:11:10.684Z,-1.8
2023-03-12T03:14:10.701Z,-1.8
2023-03-12T03:17:10.712Z,-1.8
2023-03-12T03:20:10.726Z,-1.7
2023-03-12T03:23:10.734Z,-1.7
2023-03-12T03:26:10.773Z,-1.7
2023-03-12T03:29:10.770Z,-1.7
2023-03-12T03:32:10.766Z,-1.7
2023-03-12T03:35:10.785Z,-1.7
2023-03-12T03:38:10.785Z,-1.7
2023-03-12T03:41:10.797Z,-1.8
2023-03-12T03:44:10.831Z,-1.9
2023-03-12T03:47:10.825Z,-1.9
2023-03-12T03:50:10.836Z,-1.9
2023-03-12T03:53:10.851Z,-1.9
2023-03-12T03:56:10.878Z,-2
2023-03-12T03:59:10.874Z,-2.1
2023-03-12T04:02:10.907Z,-2.2
2023-03-12T04:05:10.993Z,-2.3
2023-03-12T04:08:10.906Z,-2.5
2023-03-12T04:11:10.924Z,-2.6
2023-03-12T04:14:10.930Z,-2.8
2023-03-12T04:17:10.947Z,-2.9
2023-03-12T04:20:10.982Z,-3.1
2023-03-12T04:23:10.966Z,-3.3
2023-03-12T04:26:10.984Z,-3.4
2023-03-12T04:29:10.998Z,-3.6
2023-03-12T04:32:11.013Z,-3.6
2023-03-12T04:35:11.025Z,-3.8
2023-03-12T04:38:11.063Z,-3.8
2023-03-12T04:41:11.049Z,-3.9
2023-03-12T04:44:12.710Z,-4
2023-03-12T04:47:11.070Z,-4
2023-03-12T04:50:11.073Z,-4
2023-03-12T04:53:11.107Z,-4
2023-03-12T04:56:11.119Z,-4
2023-03-12T04:59:11.092Z,-4
2023-03-12T05:02:11.100Z,-4
2023-03-12T05:05:11.115Z,-4.1
2023-03-12T05:08:11.112Z,-4.1
2023-03-12T05:11:11.119Z,-4.2
2023-03-12T05:14:11.152Z,-4.2
2023-03-12T05:17:11.122Z,-4.2
2023-03-12T05:20:11.134Z,-4.3
2023-03-12T05:23:11.127Z,-4.3
2023-03-12T05:26:11.135Z,-4.4
2023-03-12T05:29:11.140Z,-4.4
2023-03-12T05:32:11.173Z,-4.4
2023-03-12T05:35:11.160Z,-4.3
2023-03-12T05:38:11.160Z,-4.3
2023-03-12T05:41:11.169Z,-4.3
2023-03-12T05:44:11.174Z,-4.2
2023-03-12T05:47:11.172Z,-4.1
2023-03-12T05:50:11.208Z,-4
2023-03-12T05:53:11.183Z,-3.9
2023-03-12T05:56:11.186Z,-3.7
2023-03-12T05:59:11.187Z,-3.6
2023-03-12T06:02:11.225Z,-3.4
2023-03-12T06:05:11.196Z,-3.3
2023-03-12T06:08:11.220Z,-3.1
2023-03-12T06:11:11.201Z,-3
2023-03-12T06:14:11.201Z,-2.7
2023-03-12T06:17:11.210Z,-2.4
2023-03-12T06:20:11.219Z,-2.1
2023-03-12T06:23:11.212Z,-1.8
2023-03-12T06:26:11.246Z,-1.5
2023-03-12T06:29:11.224Z,-1.4
2023-03-12T06:32:11.226Z,-1.2
2023-03-12T06:35:11.233Z,-1.1
2023-03-12T06:38:11.234Z,-1
2023-03-12T06:41:11.246Z,-0.9
2023-03-12T06:44:11.297Z,-0.8
2023-03-12T06:47:11.251Z,-0.6
2023-03-12T06:50:11.257Z,-0.4
2023-03-12T06:53:11.256Z,-0.2
2023-03-12T06:56:11.286Z,0
2023-03-12T06:59:11.271Z,0.3
2023-03-12T07:02:11.454Z,0.5
2023-03-12T07:05:11.300Z,0.6
2023-03-12T07:08:11.289Z,0.7
2023-03-12T07:11:11.302Z,0.9
2023-03-12T07:14:11.307Z,1.1
2023-03-12T07:17:11.330Z,1.4
2023-03-12T07:20:11.343Z,1.7
2023-03-12T07:23:11.321Z,1.8
2023-03-12T07:26:11.322Z,1.8
2023-03-12T07:29:11.329Z,1.9
2023-03-12T07:32:11.331Z,2.2
2023-03-12T07:35:11.342Z,2.4
2023-03-12T07:38:11.449Z,2.6
2023-03-12T07:41:11.476Z,2.9
2023-03-12T07:44:11.453Z,3.2
2023-03-12T07:47:23.024Z,3.6
2023-03-12T07:50:11.474Z,4.3
2023-03-12T07:53:11.437Z,4.8
2023-03-12T07:56:11.534Z,5
2023-03-12T07:59:11.593Z,4.9
2023-03-12T08:02:11.544Z,4.7
2023-03-12T08:05:11.482Z,4.6
2023-03-12T08:08:11.541Z,4.5
2023-03-12T08:11:11.444Z,4.5
2023-03-12T08:14:11.502Z,4.4
2023-03-12T08:17:11.432Z,4.5
2023-03-12T08:20:11.433Z,4.6
2023-03-12T08:23:11.432Z,4.7
2023-03-12T08:26:11.431Z,4.9
2023-03-12T08:29:11.434Z,4.9
2023-03-12T08:32:11.511Z,4.9
2023-03-12T08:35:11.441Z,4.9
2023-03-12T08:38:11.440Z,5
2023-03-12T08:41:11.440Z,5.4
2023-03-12T08:44:11.443Z,5.8
2023-03-12T08:47:11.448Z,6.1
2023-03-12T08:50:11.484Z,6.4
2023-03-12T08:53:11.448Z,6.5
2023-03-12T08:56:11.455Z,6.7
2023-03-12T08:59:11.461Z,7
2023-03-12T09:02:11.473Z,7.4
2023-03-12T09:05:11.463Z,7.7
2023-03-12T09:08:11.496Z,7.6
2023-03-12T09:11:11.469Z,7.5
2023-03-12T09:17:11.484Z,6.8
2023-03-12T09:20:11.469Z,6.6
2023-03-12T09:23:11.478Z,6.5
2023-03-12T09:26:11.510Z,6.4
2023-03-12T09:29:11.480Z,6.5
2023-03-12T09:32:11.470Z,6.7
2023-03-12T09:35:11.477Z,7.1
2023-03-12T09:38:11.483Z,7.5
2023-03-12T09:41:11.478Z,7.8
2023-03-12T09:44:11.507Z,8.1
2023-03-12T09:47:11.491Z,8.5
2023-03-12T09:50:11.487Z,8.9
2023-03-12T09:53:11.495Z,9.1
2023-03-12T09:56:11.501Z,9
2023-03-12T09:59:11.496Z,8.9
2023-03-12T10:02:11.523Z,8.8
2023-03-12T10:05:11.528Z,8.6
2023-03-12T10:08:23.740Z,8.9
2023-03-12T10:11:11.508Z,9.2
2023-03-12T10:14:12.131Z,9.2
2023-03-12T10:17:11.517Z,9
2023-03-12T10:20:11.551Z,8.6
2023-03-12T10:23:11.522Z,8.7
2023-03-12T10:26:11.534Z,8.7
2023-03-12T10:29:11.524Z,8.5
2023-03-12T10:32:11.553Z,8.1
2023-03-12T10:35:11.536Z,7.9
2023-03-12T10:38:11.564Z,8
2023-03-12T10:41:11.541Z,8
2023-03-12T10:44:11.551Z,8
2023-03-12T10:47:11.552Z,8
2023-03-12T10:50:11.554Z,7.8
2023-03-12T10:53:11.561Z,7.5
2023-03-12T10:56:11.599Z,7.5
2023-03-12T10:59:11.561Z,7.5
2023-03-12T11:02:11.580Z,7.5
2023-03-12T11:05:11.569Z,7.4
2023-03-12T11:08:11.570Z,7.4
2023-03-12T11:11:11.587Z,7.3
2023-03-12T11:14:11.601Z,7.2
2023-03-12T11:17:11.586Z,7.1
2023-03-12T11:20:11.582Z,7
2023-03-12T11:23:11.583Z,6.9
2023-03-12T11:26:11.600Z,6.7
2023-03-12T11:29:11.618Z,6.6
2023-03-12T11:32:11.629Z,6.5
2023-03-12T11:35:11.601Z,6.5
2023-03-12T11:38:11.596Z,6.5
2023-03-12T11:41:11.601Z,6.4
2023-03-12T11:44:11.594Z,6.3
2023-03-12T11:47:11.722Z,6.3
2023-03-12T11:50:11.621Z,6.3
2023-03-12T11:53:11.596Z,6.3
2023-03-12T11:56:11.602Z,6.3
2023-03-12T11:59:11.618Z,6.2
2023-03-12T12:02:11.660Z,6.2
2023-03-12T12:05:11.622Z,6.1
2023-03-12T12:08:11.659Z,6.1
2023-03-12T12:11:11.638Z,6.1
2023-03-12T12:14:11.651Z,6.2
2023-03-12T12:17:11.660Z,6.3
2023-03-12T12:20:11.662Z,6.3
2023-03-12T12:23:11.673Z,6.3
2023-03-12T12:26:11.707Z,6.2
2023-03-12T12:29:11.691Z,6
2023-03-12T12:32:11.696Z,5.8
2023-03-12T12:35:14.056Z,5.7
2023-03-12T12:38:11.727Z,5.7
2023-03-12T12:41:11.728Z,5.7
2023-03-12T12:44:11.790Z,5.8
2023-03-12T12:47:11.773Z,5.9
2023-03-12T12:50:11.750Z,6
2023-03-12T12:53:11.756Z,6.1
2023-03-12T12:56:14.146Z,6.3
2023-03-12T12:59:11.771Z,6.3
2023-03-12T13:02:11.802Z,6.1
2023-03-12T13:05:11.788Z,5.8
2023-03-12T13:08:11.793Z,5.5
2023-03-12T13:11:18.602Z,5.2
2023-03-12T13:14:11.801Z,5.1
2023-03-12T13:17:11.812Z,5
2023-03-12T13:20:11.845Z,5
2023-03-12T13:23:11.818Z,5
2023-03-12T13:26:11.825Z,4.9
2023-03-12T13:29:12.976Z,5
2023-03-12T13:32:11.846Z,4.9
2023-03-12T13:35:11.841Z,4.8
2023-03-12T13:38:11.877Z,4.8
2023-03-12T13:41:11.856Z,4.8
2023-03-12T13:44:11.857Z,4.7
2023-03-12T13:47:11.869Z,4.7
2023-03-12T13:50:11.872Z,4.6
2023-03-12T13:53:11.876Z,4.5
2023-03-12T13:56:11.908Z,4.4
2023-03-12T13:59:11.890Z,4.2
2023-03-12T14:02:11.898Z,4.2
2023-03-12T14:05:11.958Z,4.1
2023-03-12T14:08:11.905Z,4.1
2023-03-12T14:11:11.985Z,4
2023-03-12T14:14:11.935Z,4
2023-03-12T14:17:11.914Z,3.9
2023-03-12T14:20:11.929Z,3.9
2023-03-12T14:23:11.930Z,3.8
2023-03-12T14:26:11.928Z,3.9
2023-03-12T14:29:11.942Z,3.9
2023-03-12T14:32:11.972Z,3.9
2023-03-12T14:35:11.945Z,3.9
2023-03-12T14:38:11.947Z,3.9
2023-03-12T14:41:11.954Z,3.9
2023-03-12T14:44:11.957Z,3.8
2023-03-12T14:47:11.962Z,3.7
2023-03-12T14:50:12.060Z,3.7
2023-03-12T14:53:11.971Z,3.7
2023-03-12T14:56:11.994Z,3.7
2023-03-12T14:59:11.987Z,3.7
2023-03-12T15:02:12.025Z,3.7
2023-03-12T15:05:12.025Z,3.6
2023-03-12T15:08:12.012Z,3.6
2023-03-12T15:11:11.997Z,3.5
2023-03-12T15:14:12.017Z,3.5
2023-03-12T15:17:12.007Z,3.6
2023-03-12T15:20:12.110Z,3.6
2023-03-12T15:23:12.018Z,3.7
2023-03-12T15:26:12.049Z,3.7
2023-03-12T15:29:12.031Z,3.6
2023-03-12T15:32:12.048Z,3.6
2023-03-12T15:35:12.058Z,3.5
2023-03-12T15:38:12.045Z,3.5
2023-03-12T15:41:12.047Z,3.4
2023-03-12T15:44:12.081Z,3.3
2023-03-12T15:47:12.059Z,3.3
2023-03-12T15:50:12.066Z,3.2
2023-03-12T15:53:12.081Z,3.2
2023-03-12T15:56:12.073Z,3.2
2023-03-12T15:59:12.070Z,3.2
2023-03-12T16:02:12.122Z,3.2
2023-03-12T16:05:12.102Z,3.2
2023-03-12T16:08:12.085Z,3.2
2023-03-12T16:11:12.092Z,3.1
2023-03-12T16:14:12.099Z,3.1
2023-03-12T16:17:12.105Z,3.1
2023-03-12T16:20:12.143Z,3.1
2023-03-12T16:23:12.122Z,3.2
2023-03-12T16:26:12.114Z,3.2
2023-03-12T16:29:12.114Z,3.2
2023-03-12T16:32:12.122Z,3.2
2023-03-12T16:35:12.129Z,3.2
2023-03-12T16:38:12.168Z,3.2
2023-03-12T16:41:12.140Z,3.2
2023-03-12T16:44:12.149Z,3.2
2023-03-12T16:47:12.153Z,3.2
2023-03-12T16:50:12.152Z,3.2
2023-03-12T16:53:12.151Z,3.3
2023-03-12T16:56:12.262Z,3.3
2023-03-12T16:59:12.168Z,3.3
2023-03-12T17:02:12.160Z,3.4
2023-03-12T17:05:12.168Z,3.4
2023-03-12T17:08:12.175Z,3.5
2023-03-12T17:11:12.188Z,3.6
2023-03-12T17:14:12.209Z,3.6
2023-03-12T17:17:12.198Z,3.8
2023-03-12T17:20:12.198Z,3.9
2023-03-12T17:23:12.205Z,4
2023-03-12T17:26:12.209Z,4.1
2023-03-12T17:29:12.217Z,4.2
2023-03-12T17:32:12.236Z,4.3
2023-03-12T17:35:12.220Z,4.4
2023-03-12T17:38:12.244Z,4.5
2023-03-12T17:41:25.373Z,4.5
2023-03-12T17:44:12.233Z,4.6
2023-03-12T17:47:12.235Z,4.7
2023-03-12T17:50:12.272Z,4.7
2023-03-12T17:53:12.250Z,4.8
2023-03-12T17:56:12.281Z,4.8
2023-03-12T17:59:12.256Z,4.9
2023-03-12T18:02:12.260Z,4.9
2023-03-12T18:05:12.432Z,4.9
2023-03-12T18:08:12.296Z,5
2023-03-12T18:11:12.276Z,5.1
2023-03-12T18:14:12.285Z,5.1
2023-03-12T18:17:12.286Z,5.1
2023-03-12T18:20:12.301Z,5.2
2023-03-12T18:23:12.301Z,5.2
2023-03-12T18:26:12.336Z,5.2
2023-03-12T18:29:12.310Z,5.2
2023-03-12T18:32:12.320Z,5.3
2023-03-12T18:35:12.324Z,5.3
2023-03-12T18:38:12.338Z,5.3
2023-03-12T18:41:12.505Z,5.3
2023-03-12T18:44:12.358Z,5.4
2023-03-12T18:47:12.336Z,5.4
2023-03-12T18:50:12.346Z,5.4
2023-03-12T18:53:12.343Z,5.4
2023-03-12T18:56:12.349Z,5.4
2023-03-12T18:59:12.355Z,5.4
2023-03-12T19:02:12.470Z,5.4
2023-03-12T19:05:12.368Z,5.4
2023-03-12T19:08:12.367Z,5.4
2023-03-12T19:11:12.378Z,5.4
2023-03-12T19:14:12.384Z,5.4
2023-03-12T19:17:12.425Z,5.4
2023-03-12T19:20:12.450Z,5.5
2023-03-12T19:23:12.417Z,5.4
2023-03-12T19:26:12.414Z,5.5
2023-03-12T19:29:12.413Z,5.4
2023-03-12T19:32:12.414Z,5.4
2023-03-12T19:35:12.427Z,5.5
2023-03-12T19:38:12.462Z,5.5
2023-03-12T19:41:12.435Z,5.5
2023-03-12T19:44:12.439Z,5.6
2023-03-12T19:47:12.446Z,5.5
2023-03-12T19:50:12.440Z,5.6
2023-03-12T19:53:12.437Z,5.6
2023-03-12T19:56:12.477Z,5.7
2023-03-12T19:59:12.451Z,5.6
2023-03-12T20:02:12.489Z,5.6
2023-03-12T20:05:12.455Z,5.6
2023-03-12T20:08:12.459Z,5.6
2023-03-12T20:11:12.470Z,5.7
2023-03-12T20:14:12.502Z,5.8
2023-03-12T20:17:12.481Z,5.8
2023-03-12T20:20:12.481Z,5.9
2023-03-12T20:23:12.488Z,5.9
2023-03-12T20:26:12.492Z,5.9
2023-03-12T20:29:12.496Z,5.8
2023-03-12T20:32:12.602Z,5.9
2023-03-12T20:35:12.499Z,5.9
2023-03-12T20:38:12.503Z,5.8
2023-03-12T20:41:12.504Z,5.8
2023-03-12T20:44:12.512Z,5.8
2023-03-12T20:47:12.523Z,5.8
2023-03-12T20:50:12.553Z,5.8
2023-03-12T20:53:12.528Z,5.8
2023-03-12T20:56:12.568Z,5.8
2023-03-12T20:59:12.542Z,5.8
2023-03-12T21:02:12.588Z,5.8
2023-03-12T21:05:12.546Z,5.8
2023-03-12T21:08:12.580Z,5.8
2023-03-12T21:11:12.552Z,5.9
2023-03-12T21:14:12.560Z,6
2023-03-12T21:17:12.563Z,6.1
2023-03-12T21:20:12.564Z,6.1
2023-03-12T21:23:12.617Z,6.2
2023-03-12T21:26:12.612Z,6.3
2023-03-12T21:29:12.580Z,6.3
2023-03-12T21:32:12.584Z,6.4
2023-03-12T21:35:12.584Z,6.4
2023-03-12T21:38:12.606Z,6.5
2023-03-12T21:41:12.594Z,6.5
2023-03-12T21:44:14.224Z,6.5
2023-03-12T21:47:12.625Z,6.5
2023-03-12T21:50:12.630Z,6.5
2023-03-12T21:53:23.083Z,6.6
2023-03-12T21:56:12.623Z,6.6
2023-03-12T21:59:12.623Z,6.7
2023-03-12T22:02:12.654Z,6.7
2023-03-12T22:05:12.640Z,6.7
2023-03-12T22:08:12.627Z,6.7
2023-03-12T22:11:12.646Z,6.7
2023-03-12T22:14:12.640Z,6.7
2023-03-12T22:17:12.640Z,6.8
2023-03-12T22:20:12.670Z,6.8
2023-03-12T22:23:12.650Z,6.7
2023-03-12T22:26:12.654Z,6.7
2023-03-12T22:29:12.655Z,6.6
2023-03-12T22:32:12.655Z,6.6
2023-03-12T22:35:12.654Z,6.6
2023-03-12T22:38:12.691Z,6.7
2023-03-12T22:41:12.668Z,6.6
2023-03-12T22:44:12.672Z,6.6
2023-03-12T22:47:12.672Z,6.6
2023-03-12T22:50:12.685Z,6.6
2023-03-12T22:53:12.679Z,6.7
2023-03-12T22:56:12.730Z,6.7
2023-03-12T22:59:12.693Z,6.7
2023-03-12T23:02:12.779Z,6.7
2023-03-12T23:05:12.703Z,6.7
2023-03-12T23:08:12.709Z,6.7
2023-03-12T23:11:12.708Z,6.7
2023-03-12T23:14:12.736Z,6.7
2023-03-12T23:17:12.712Z,6.7
2023-03-12T23:20:12.718Z,6.8
2023-03-12T23:23:12.722Z,6.8
2023-03-12T23:26:12.725Z,6.8
2023-03-12T23:29:12.728Z,6.8
2023-03-12T23:32:12.761Z,6.7
2023-03-12T23:35:12.745Z,6.7
2023-03-12T23:38:12.748Z,6.7
2023-03-12T23:41:12.753Z,6.7
2023-03-12T23:44:12.762Z,6.7
2023-03-12T23:47:12.769Z,6.8
2023-03-12T23:50:12.796Z,6.8
2023-03-12T23:53:12.782Z,6.9
2023-03-12T23:56:12.794Z,6.9
2023-03-12T23:59:12.781Z,7
